This is the latest recevied weather packets stored in our database for station/object OH6HPS. If no packets are shown the sender has not sent any weather packets the latest 10 day(s).
| Time | Temp. | Humidity | Pressure | Rain* | Wind** | Luminosity | Snow |
|---|---|---|---|---|---|---|---|
| 1788501363 | 10.56° C | 97% | 998.9 hPa | 0 mm | - | 225 W/m² | - |
| 1788500763 | 10° C | 97% | 998.9 hPa | 0 mm | - | 206 W/m² | - |
| 1788500163 | 9.44° C | 97% | 998.8 hPa | 0 mm | - | 76 W/m² | - |
| 1788499562 | 8.33° C | 97% | 998.9 hPa | 0 mm | - | 32 W/m² | - |
| 1788498963 | 7.78° C | 97% | 998.8 hPa | 0 mm | - | 30 W/m² | - |
| 1788498362 | 7.22° C | 97% | 998.9 hPa | 0 mm | - | 30 W/m² | - |
| 1788497762 | 7.22° C | 96% | 998.9 hPa | 0 mm | - | 28 W/m² | - |
| 1788497163 | 6.67° C | 96% | 999 hPa | 0 mm | - | 25 W/m² | - |
| 1788496563 | 6.67° C | 96% | 999.2 hPa | 0 mm | - | 23 W/m² | - |
| 1788495963 | 6.11° C | 96% | 999.2 hPa | 0 mm | - | 18 W/m² | - |
| 1788495362 | 6.11° C | 96% | 999.2 hPa | 0 mm | - | 14 W/m² | - |
| 1788494762 | 6.11° C | 96% | 999.4 hPa | 0 mm | - | 12 W/m² | - |
| 1788494163 | 6.11° C | 96% | 999.5 hPa | 0 mm | - | 11 W/m² | - |
| 1788493563 | 6.11° C | 95% | 999.6 hPa | 0 mm | - | 7 W/m² | - |
| 1788492962 | 6.11° C | 95% | 999.9 hPa | 0 mm | - | 0 W/m² | - |
| 1788492363 | 6.11° C | 95% | 999.9 hPa | 0 mm | - | 0 W/m² | - |
| 1788491163 | 6.11° C | 95% | 1000.2 hPa | 0 mm | - | 0 W/m² | - |
| 1788490563 | 6.11° C | 95% | 1000.3 hPa | 0 mm | - | 0 W/m² | - |
| 1788489363 | 6.67° C | 96% | 1000.5 hPa | 0 mm | - | 0 W/m² | - |
| 1788487563 | 6.67° C | 95% | 1000.6 hPa | 0 mm | - | 0 W/m² | - |
| 1788486962 | 6.67° C | 95% | 1000.8 hPa | 0 mm | - | 0 W/m² | - |
| 1788485763 | 6.67° C | 95% | 1000.8 hPa | 0 mm | - | 0 W/m² | - |
| 1788484563 | 6.67° C | 95% | 1001 hPa | 0 mm | - | 0 W/m² | - |
| 1788483363 | 6.67° C | 95% | 1001.3 hPa | 0 mm | - | 0 W/m² | - |
| 1788474363 | 7.78° C | 94% | 1002.7 hPa | 0 mm | - | 0 W/m² | - |
* Rain latest hour (hover to see other rain measurements)
** Current wind speed in m/s (hover to see current wind gust speed)